Time;durP1;ratioP1;P1;durP2;ratioP2;P2;SDS_P1;SDS_P2;PMS_P1;PMS_P2;Temp;Humidity;BMP_temperature;BMP_pressure;BME280_temperature;BME280_humidity;BME280_pressure;Samples;Min_cycle;Max_cycle;Signal;HPM_P1;HPM_P2
2021/06/16 00:00:45;;;;;;;9.40;6.97;;;;;;;21.95;61.20;100402.53;4933481;28;97324;-88
2021/06/16 00:03:11;;;;;;;12.45;7.50;;;;;;;22.08;60.79;100404.09;4943092;28;101514;-89
2021/06/16 00:05:36;;;;;;;9.70;6.55;;;;;;;21.98;61.13;100410.28;4959504;28;101681;-89
2021/06/16 00:08:02;;;;;;;14.00;7.57;;;;;;;21.92;61.41;100416.97;4959303;28;96940;-88
2021/06/16 00:10:30;;;;;;;10.75;7.07;;;;;;;21.92;61.26;100415.16;4975758;28;96869;-88
2021/06/16 00:12:57;;;;;;;12.02;7.43;;;;;;;21.77;61.62;100419.06;4944034;28;101328;-88
2021/06/16 00:15:29;;;;;;;10.98;6.53;;;;;;;21.62;62.23;100426.47;4959364;28;101263;-88
2021/06/16 00:17:54;;;;;;;17.80;7.88;;;;;;;21.61;62.54;100424.78;4979644;28;96838;-87
2021/06/16 00:20:20;;;;;;;9.10;6.80;;;;;;;21.51;62.59;100433.63;4961929;28;97207;-89
2021/06/16 00:22:46;;;;;;;10.88;7.45;;;;;;;21.47;62.75;100425.00;4942107;28;101601;-88
2021/06/16 00:25:12;;;;;;;10.43;7.65;;;;;;;21.48;62.77;100430.22;4937088;28;100411;-89
2021/06/16 00:27:37;;;;;;;13.30;8.68;;;;;;;21.46;62.71;100420.59;4930965;28;96884;-89
2021/06/16 00:30:08;;;;;;;13.60;8.00;;;;;;;21.50;62.70;100426.56;4954709;28;97234;-88
2021/06/16 00:32:33;;;;;;;13.25;8.05;;;;;;;21.56;62.42;100418.09;4953307;28;101173;-88
2021/06/16 00:35:00;;;;;;;11.98;8.75;;;;;;;21.39;62.90;100422.91;4967093;28;101058;-88
2021/06/16 00:37:29;;;;;;;12.27;8.98;;;;;;;21.35;62.88;100423.22;4942955;28;96645;-89
2021/06/16 00:39:55;;;;;;;11.35;8.13;;;;;;;21.38;62.92;100415.00;4960563;28;96635;-89
2021/06/16 00:42:24;;;;;;;11.25;7.95;;;;;;;21.29;63.03;100415.69;4947329;28;100533;-89
2021/06/16 00:44:50;;;;;;;16.63;8.63;;;;;;;21.30;62.82;100420.94;4956390;28;99944;-88
2021/06/16 00:47:16;;;;;;;11.13;7.65;;;;;;;21.31;63.14;100429.78;4962131;28;97256;-88
2021/06/16 00:49:42;;;;;;;11.18;7.75;;;;;;;21.36;62.75;100422.28;4946707;28;96919;-88
2021/06/16 00:52:08;;;;;;;12.60;7.78;;;;;;;21.29;63.00;100426.38;4941976;28;100286;-90
2021/06/16 00:54:34;;;;;;;10.57;7.63;;;;;;;21.34;62.92;100426.88;4942785;28;97684;-88
2021/06/16 00:57:01;;;;;;;15.77;8.25;;;;;;;21.18;63.32;100421.88;4962067;28;97051;-87
2021/06/16 00:59:29;;;;;;;11.00;7.65;;;;;;;21.09;63.31;100425.22;4978660;28;96761;-87
2021/06/16 01:01:55;;;;;;;12.10;8.10;;;;;;;20.95;63.95;100420.97;4958778;28;101602;-88
2021/06/16 01:04:27;;;;;;;14.13;8.20;;;;;;;20.95;63.84;100420.97;4945420;28;101085;-88
2021/06/16 01:07:04;;;;;;;12.05;8.40;;;;;;;21.01;63.65;100423.16;4962654;28;96784;-88
2021/06/16 01:09:36;;;;;;;12.82;7.45;;;;;;;20.95;63.84;100429.81;4978602;28;97151;-87
2021/06/16 01:12:21;;;;;;;11.55;8.15;;;;;;;20.98;63.85;100426.91;4958757;28;101319;-87
2021/06/16 01:15:04;;;;;;;11.00;8.00;;;;;;;21.07;63.41;100427.19;4962343;28;101531;-87
2021/06/16 01:17:48;;;;;;;12.57;7.63;;;;;;;20.94;63.54;100425.47;4945387;28;96890;-88
2021/06/16 01:20:25;;;;;;;14.95;8.35;;;;;;;20.90;63.88;100431.97;4958036;28;96834;-87
2021/06/16 01:23:14;;;;;;;13.35;8.82;;;;;;;20.79;64.34;100437.25;4958222;28;100571;-89
2021/06/16 01:25:49;;;;;;;10.60;8.10;;;;;;;20.78;64.37;100438.25;4957210;28;101970;-88
2021/06/16 01:28:18;;;;;;;11.70;8.13;;;;;;;20.73;64.98;100432.38;4953965;28;96785;-88
2021/06/16 01:30:45;;;;;;;11.02;8.25;;;;;;;20.74;64.71;100434.97;4944738;28;96990;-88
2021/06/16 01:33:13;;;;;;;10.02;8.27;;;;;;;20.84;64.28;100436.94;4941263;28;101555;-90
2021/06/16 01:35:41;;;;;;;9.85;8.00;;;;;;;20.90;64.33;100447.13;4954358;28;100154;-87
2021/06/16 01:38:08;;;;;;;16.90;8.65;;;;;;;20.92;64.13;100450.56;4925945;28;97338;-88
2021/06/16 01:40:34;;;;;;;11.38;7.45;;;;;;;20.99;63.61;100444.63;4961807;28;96982;-88
2021/06/16 01:43:02;;;;;;;14.00;7.68;;;;;;;20.98;63.83;100450.94;4945211;28;101715;-87
2021/06/16 01:45:30;;;;;;;11.40;7.68;;;;;;;21.04;63.53;100446.94;4961048;28;101547;-88
2021/06/16 01:47:58;;;;;;;12.02;7.68;;;;;;;21.02;63.66;100449.72;4945167;28;97178;-87
2021/06/16 01:50:24;;;;;;;14.00;7.75;;;;;;;20.98;63.84;100448.25;4969825;28;96927;-87
2021/06/16 01:52:52;;;;;;;12.75;7.93;;;;;;;20.98;63.67;100448.25;4938157;28;101476;-87
2021/06/16 01:55:19;;;;;;;10.60;8.13;;;;;;;21.08;63.37;100452.91;4946262;28;98014;-88
2021/06/16 01:57:45;;;;;;;12.65;8.13;;;;;;;20.90;64.19;100452.47;4960685;28;97407;-88
2021/06/16 02:00:11;;;;;;;14.13;8.63;;;;;;;20.85;64.33;100447.47;4961004;28;97242;-88
2021/06/16 02:02:37;;;;;;;10.85;7.88;;;;;;;20.85;64.43;100439.47;4957210;28;100943;-88
2021/06/16 02:05:08;;;;;;;13.95;8.30;;;;;;;20.87;64.28;100437.53;4930795;28;101171;-88
2021/06/16 02:07:39;;;;;;;11.88;8.40;;;;;;;20.77;64.78;100440.06;4956570;28;96802;-88
2021/06/16 02:10:06;;;;;;;10.50;7.85;;;;;;;20.85;64.40;100433.28;4978221;28;96849;-88
2021/06/16 02:12:32;;;;;;;13.23;8.43;;;;;;;20.79;64.60;100437.25;4973291;28;100457;-88
2021/06/16 02:15:02;;;;;;;10.68;7.75;;;;;;;20.75;64.79;100436.66;4969858;28;98288;-88
2021/06/16 02:17:29;;;;;;;10.18;8.32;;;;;;;20.85;64.28;100441.28;4944759;28;96880;-88
2021/06/16 02:19:56;;;;;;;17.15;8.48;;;;;;;20.76;64.73;100446.34;4961629;28;96963;-88
2021/06/16 02:22:26;;;;;;;12.52;8.95;;;;;;;20.66;65.17;100448.00;4940768;28;101850;-88
2021/06/16 02:24:52;;;;;;;14.85;8.95;;;;;;;20.63;65.59;100452.72;4941571;28;100926;-87
2021/06/16 02:27:18;;;;;;;12.70;8.57;;;;;;;20.65;65.20;100446.28;4942239;28;96692;-88
2021/06/16 02:29:43;;;;;;;12.63;8.70;;;;;;;20.69;64.96;100458.44;4942314;28;96874;-88
2021/06/16 02:32:09;;;;;;;12.80;8.63;;;;;;;20.62;65.27;100446.50;4945177;28;101934;-88
2021/06/16 02:34:35;;;;;;;12.88;9.02;;;;;;;20.54;65.33;100452.44;4960623;28;98008;-87
2021/06/16 02:37:04;;;;;;;14.75;9.60;;;;;;;20.41;65.94;100446.25;4939803;28;97313;-88
2021/06/16 02:39:38;;;;;;;12.20;9.32;;;;;;;20.27;66.49;100451.72;4952987;28;97111;-88
2021/06/16 02:42:05;;;;;;;32.15;9.95;;;;;;;20.37;66.12;100444.78;4964169;28;98454;-88
2021/06/16 02:44:31;;;;;;;13.18;9.30;;;;;;;20.40;66.01;100449.03;4944164;28;100429;-88
2021/06/16 02:46:57;;;;;;;15.25;10.70;;;;;;;20.46;65.72;100453.94;4961266;28;96811;-88
2021/06/16 02:49:36;;;;;;;13.15;8.50;;;;;;;20.47;65.51;100453.78;4940718;28;96770;-88
2021/06/16 02:52:03;;;;;;;11.70;8.82;;;;;;;20.35;66.17;100449.38;4956279;28;97602;-87
2021/06/16 02:54:32;;;;;;;19.13;9.55;;;;;;;20.25;66.37;100451.88;4954723;28;101109;-86
2021/06/16 02:56:59;;;;;;;13.85;9.73;;;;;;;20.24;66.58;100446.63;4967948;28;96900;-88
2021/06/16 02:59:27;;;;;;;18.05;9.63;;;;;;;20.33;66.16;100448.63;4956605;28;97092;-88
2021/06/16 03:01:52;;;;;;;15.85;10.25;;;;;;;20.21;66.72;100446.84;4956528;28;101227;-89
2021/06/16 03:04:20;;;;;;;11.13;8.65;;;;;;;20.17;66.75;100443.56;4970184;28;101608;-88
2021/06/16 03:06:46;;;;;;;13.30;9.43;;;;;;;20.20;66.71;100453.16;4931478;28;97301;-88
2021/06/16 03:09:12;;;;;;;15.63;9.65;;;;;;;20.19;66.78;100440.78;4930488;28;97227;-88
2021/06/16 03:11:38;;;;;;;20.17;10.02;;;;;;;20.32;66.33;100445.09;4950734;28;99132;-88
2021/06/16 03:14:04;;;;;;;10.40;9.07;;;;;;;20.33;66.36;100443.28;4940329;28;100332;-88
2021/06/16 03:16:32;;;;;;;14.63;9.73;;;;;;;20.39;66.28;100455.31;4947880;28;97110;-88
2021/06/16 03:18:58;;;;;;;12.90;9.60;;;;;;;20.50;65.96;100450.91;4941385;28;96857;-88
2021/06/16 03:21:24;;;;;;;15.68;10.60;;;;;;;20.65;65.21;100451.63;4975488;28;100584;-83
2021/06/16 03:23:49;;;;;;;14.40;9.63;;;;;;;20.61;65.47;100463.50;4942848;28;101435;-88
2021/06/16 03:26:17;;;;;;;13.63;9.77;;;;;;;20.77;65.04;100463.22;4956511;28;97249;-90
2021/06/16 03:28:42;;;;;;;17.58;10.18;;;;;;;20.69;65.23;100474.44;4944112;28;97008;-88
2021/06/16 03:31:08;;;;;;;19.15;10.15;;;;;;;20.58;65.73;100475.22;4976812;28;97240;-88
2021/06/16 03:33:34;;;;;;;15.68;10.27;;;;;;;20.50;65.96;100474.06;4976106;28;98428;-88
2021/06/16 03:36:00;;;;;;;14.00;10.27;;;;;;;20.47;66.18;100471.63;4940525;28;96796;-87
2021/06/16 03:38:26;;;;;;;13.88;10.05;;;;;;;20.54;65.87;100464.91;4959976;28;96703;-88
2021/06/16 03:40:53;;;;;;;14.40;10.38;;;;;;;20.70;65.35;100468.13;4956719;28;101495;-87
2021/06/16 03:43:21;;;;;;;14.15;9.80;;;;;;;20.88;64.50;100465.06;4943923;28;100375;-89
2021/06/16 03:45:48;;;;;;;17.77;9.68;;;;;;;20.78;64.50;100462.25;4940700;28;96890;-88
2021/06/16 03:48:18;;;;;;;13.38;9.57;;;;;;;20.92;64.13;100454.06;4955714;28;97132;-88
2021/06/16 03:50:44;;;;;;;16.88;9.48;;;;;;;20.97;64.23;100459.91;4937217;28;101945;-87
2021/06/16 03:53:11;;;;;;;13.38;9.65;;;;;;;20.95;63.92;100459.16;4946002;28;100430;-88
2021/06/16 03:55:40;;;;;;;16.27;8.98;;;;;;;21.14;63.57;100458.63;4952393;28;96896;-88
2021/06/16 03:58:06;;;;;;;16.90;10.43;;;;;;;21.18;63.33;100467.25;4960996;28;97207;-88
2021/06/16 04:00:31;;;;;;;13.52;9.80;;;;;;;21.32;62.88;100458.16;4959700;28;98475;-88
2021/06/16 04:02:57;;;;;;;12.80;9.07;;;;;;;21.40;62.59;100466.47;4950159;28;101358;-88
2021/06/16 04:05:22;;;;;;;18.88;9.70;;;;;;;21.49;62.41;100463.09;4947135;28;96736;-88
2021/06/16 04:07:50;;;;;;;11.57;8.65;;;;;;;21.64;61.96;100469.06;4960029;28;96648;-87
2021/06/16 04:10:19;;;;;;;13.05;9.02;;;;;;;21.81;61.55;100473.09;4937391;28;100121;-91
2021/06/16 04:12:46;;;;;;;12.32;8.68;;;;;;;21.90;61.16;100469.69;4933143;28;101513;-88
2021/06/16 04:15:12;;;;;;;12.82;9.15;;;;;;;21.86;61.32;100473.59;4967288;28;97044;-87
2021/06/16 04:17:38;;;;;;;16.73;8.80;;;;;;;22.08;60.89;100472.75;4939077;28;96663;-88
2021/06/16 04:20:06;;;;;;;15.18;9.35;;;;;;;22.15;60.57;100477.47;4936754;28;100076;-88
2021/06/16 04:22:31;;;;;;;10.80;8.20;;;;;;;22.28;60.24;100471.16;4941031;28;101271;-87
2021/06/16 04:24:57;;;;;;;15.55;9.38;;;;;;;22.40;59.79;100480.00;4955131;28;96713;-87
2021/06/16 04:27:22;;;;;;;12.10;8.70;;;;;;;22.42;59.68;100488.75;4931519;28;97019;-88
2021/06/16 04:29:48;;;;;;;13.93;8.95;;;;;;;22.49;59.49;100485.47;4979259;28;98663;-88
2021/06/16 04:32:14;;;;;;;16.08;9.02;;;;;;;22.70;58.98;100490.88;4943133;28;101486;-87
2021/06/16 04:34:40;;;;;;;18.17;10.73;;;;;;;22.74;58.84;100481.63;4926368;28;96738;-87
2021/06/16 04:37:06;;;;;;;15.32;10.70;;;;;;;22.91;58.61;100492.78;4946146;28;97190;-87
2021/06/16 04:39:32;;;;;;;15.63;11.45;;;;;;;22.94;58.36;100493.34;4957159;28;101826;-87
2021/06/16 04:41:57;;;;;;;16.95;11.82;;;;;;;22.70;58.68;100490.88;4974172;28;98365;-87
2021/06/16 04:44:23;;;;;;;13.35;9.73;;;;;;;22.73;58.62;100484.44;4937001;28;96621;-88
2021/06/16 04:46:49;;;;;;;15.52;10.30;;;;;;;22.70;58.57;100484.69;4959241;28;96966;-89
2021/06/16 04:49:15;;;;;;;21.33;11.45;;;;;;;22.65;58.84;100486.91;4950901;28;101754;-87
2021/06/16 04:51:41;;;;;;;12.00;9.07;;;;;;;22.81;58.09;100490.84;4957670;28;100181;-87
2021/06/16 04:54:10;;;;;;;13.35;9.48;;;;;;;22.92;57.69;100489.97;4954339;28;97019;-87
2021/06/16 04:56:45;;;;;;;13.85;8.65;;;;;;;23.02;57.02;100490.09;4943446;28;97024;-87
2021/06/16 04:59:11;;;;;;;12.43;9.98;;;;;;;23.25;56.55;100483.66;4939402;28;101277;-86
2021/06/16 05:01:37;;;;;;;14.15;11.02;;;;;;;23.36;56.76;100487.22;4944963;28;101598;-86
2021/06/16 05:04:03;;;;;;;14.15;9.90;;;;;;;23.52;55.60;100487.63;4942491;28;96741;-87
2021/06/16 05:06:28;;;;;;;12.43;8.63;;;;;;;23.86;55.06;100501.69;4958721;28;96929;-88
2021/06/16 05:08:54;;;;;;;17.67;8.40;;;;;;;24.15;54.08;100493.75;4939187;28;100381;-87
2021/06/16 05:11:20;;;;;;;12.70;8.40;;;;;;;24.23;54.03;100492.22;4941726;28;101467;-89
2021/06/16 05:13:45;;;;;;;12.13;7.57;;;;;;;24.30;52.90;100499.59;4975600;28;96790;-86
2021/06/16 05:16:11;;;;;;;15.70;7.15;;;;;;;24.42;52.55;100500.34;4942112;28;96978;-87
2021/06/16 05:18:40;;;;;;;9.43;6.53;;;;;;;24.45;52.49;100501.94;4951450;28;97715;-86
2021/06/16 05:21:05;;;;;;;13.88;7.45;;;;;;;24.36;51.85;100508.94;4965850;28;98251;-86
2021/06/16 05:23:31;;;;;;;11.02;7.15;;;;;;;24.47;51.98;100497.28;4961338;28;96701;-87
2021/06/16 05:25:57;;;;;;;10.65;7.20;;;;;;;24.62;51.50;100499.41;4945072;28;97011;-86
2021/06/16 05:28:23;;;;;;;12.48;7.13;;;;;;;24.81;50.97;100495.06;4960471;28;100234;-88
2021/06/16 05:30:48;;;;;;;9.75;7.47;;;;;;;24.82;50.96;100496.78;4931506;28;100175;-88
2021/06/16 05:33:14;;;;;;;8.60;6.53;;;;;;;25.15;50.42;100492.00;4942022;28;96774;-89
2021/06/16 05:35:40;;;;;;;12.32;7.68;;;;;;;25.47;49.94;100489.00;4928117;28;97097;-88
2021/06/16 05:38:06;;;;;;;12.10;7.28;;;;;;;25.70;49.89;100486.81;4925374;28;100285;-88
2021/06/16 05:40:31;;;;;;;11.95;8.63;;;;;;;25.51;49.18;100485.88;4943626;28;101424;-88
2021/06/16 05:42:57;;;;;;;14.18;7.43;;;;;;;25.58;49.24;100494.19;4961996;28;97072;-86
2021/06/16 05:45:23;;;;;;;13.70;7.20;;;;;;;25.76;48.69;100488.91;4955387;28;97362;-88
2021/06/16 05:47:48;;;;;;;13.32;7.03;;;;;;;26.04;48.83;100492.53;4954365;28;98507;-88
2021/06/16 05:50:14;;;;;;;12.68;7.18;;;;;;;26.30;48.51;100498.06;4970972;28;98407;-88
2021/06/16 05:52:40;;;;;;;13.98;7.88;;;;;;;26.42;47.93;100496.88;4940405;28;96806;-89
2021/06/16 05:55:24;;;;;;;9.60;7.30;;;;;;;26.25;48.12;100492.28;4961710;28;97167;-89
2021/06/16 05:57:50;;;;;;;11.98;7.78;;;;;;;26.86;47.10;100498.88;4960809;28;101710;-88
2021/06/16 06:00:16;;;;;;;10.57;8.15;;;;;;;27.17;46.45;100499.38;4944452;28;101649;-89
2021/06/16 06:02:41;;;;;;;12.05;7.60;;;;;;;28.39;44.50;100501.13;4960628;28;96659;-89
2021/06/16 06:05:08;;;;;;;11.05;8.07;;;;;;;29.17;42.37;100505.38;4968847;28;96785;-89
2021/06/16 06:07:33;;;;;;;12.48;7.95;;;;;;;29.72;41.61;100499.28;4936687;28;101548;-89
2021/06/16 06:09:59;;;;;;;12.85;7.22;;;;;;;30.04;41.01;100500.22;4960360;28;100276;-89
2021/06/16 06:12:25;;;;;;;9.65;6.82;;;;;;;30.26;40.98;100506.78;4942856;28;96836;-90
2021/06/16 06:14:51;;;;;;;11.57;7.50;;;;;;;29.89;41.44;100513.63;4953030;28;96984;-90
2021/06/16 06:17:16;;;;;;;10.80;6.68;;;;;;;30.26;41.24;100517.59;4955784;28;101459;-89
2021/06/16 06:19:42;;;;;;;8.05;6.03;;;;;;;30.56;40.31;100507.78;4940674;28;100312;-89
2021/06/16 06:22:08;;;;;;;14.63;7.47;;;;;;;30.23;40.82;100516.94;4954165;28;96664;-89
2021/06/16 06:24:34;;;;;;;12.13;7.50;;;;;;;30.03;41.52;100523.72;4944632;28;96926;-89
2021/06/16 06:27:00;;;;;;;16.30;7.25;;;;;;;29.47;42.59;100530.91;4942237;28;101022;-89
2021/06/16 06:29:26;;;;;;;12.80;11.43;;;;;;;30.60;41.53;100512.69;4959809;28;100258;-91
2021/06/16 06:31:53;;;;;;;11.57;6.50;;;;;;;29.82;42.35;100516.19;4944417;28;97903;-89
2021/06/16 06:34:18;;;;;;;18.05;9.13;;;;;;;30.47;41.16;100517.84;4953768;28;97093;-89
2021/06/16 06:36:44;;;;;;;11.00;6.75;;;;;;;30.65;40.54;100512.16;4938447;28;101509;-90
2021/06/16 06:39:10;;;;;;;10.68;6.78;;;;;;;30.58;40.89;100522.84;4960553;28;100000;-89
2021/06/16 06:41:36;;;;;;;10.85;6.80;;;;;;;29.85;41.88;100520.41;4943186;28;97317;-88
2021/06/16 06:44:02;;;;;;;11.13;8.07;;;;;;;29.26;42.39;100520.59;4953646;28;97194;-88
2021/06/16 06:46:28;;;;;;;9.73;7.45;;;;;;;30.99;39.22;100506.38;4956799;28;98275;-89
2021/06/16 06:48:54;;;;;;;10.80;7.43;;;;;;;32.69;36.75;100512.06;4935072;28;99954;-88
2021/06/16 06:51:20;;;;;;;12.13;7.70;;;;;;;32.97;36.77;100514.88;4935556;28;97186;-88
2021/06/16 06:53:45;;;;;;;14.88;7.35;;;;;;;31.47;38.63;100509.72;4929268;28;97038;-88
2021/06/16 06:56:11;;;;;;;9.63;7.00;;;;;;;32.42;37.41;100503.56;4957040;28;97736;-89
2021/06/16 06:58:37;;;;;;;11.55;7.13;;;;;;;33.93;35.64;100509.00;4924338;28;101288;-88
2021/06/16 07:01:31;;;;;;;10.18;6.97;;;;;;;33.90;34.90;100507.50;4935774;28;97126;-88
2021/06/16 07:04:07;;;;;;;9.02;6.43;;;;;;;34.70;34.62;100502.44;4937857;28;97629;-89
2021/06/16 07:06:42;;;;;;;15.68;6.80;;;;;;;35.14;33.92;100504.66;4951858;28;100198;-88
2021/06/16 07:09:07;;;;;;;10.02;7.07;;;;;;;35.59;33.27;100513.06;4943214;28;100285;-88
2021/06/16 07:11:34;;;;;;;16.00;12.40;;;;;;;35.59;32.80;100507.59;4952470;28;97030;-89
2021/06/16 07:14:00;;;;;;;10.18;5.57;;;;;;;36.31;32.21;100510.41;4955892;28;96852;-88
2021/06/16 07:16:25;;;;;;;15.80;7.70;;;;;;;35.78;32.43;100510.50;4936783;28;99306;-92
2021/06/16 07:18:52;;;;;;;15.18;10.57;;;;;;;34.35;34.12;100505.25;4950211;28;99365;-89
2021/06/16 07:21:18;;;;;;;10.75;7.80;;;;;;;33.53;35.78;100509.56;4941174;28;97107;-88
2021/06/16 07:23:43;;;;;;;13.95;8.50;;;;;;;32.55;37.91;100505.66;4943857;28;97013;-88
2021/06/16 07:26:09;;;;;;;11.05;7.18;;;;;;;31.90;38.31;100506.41;4968838;28;98617;-88
2021/06/16 07:28:35;;;;;;;9.98;7.90;;;;;;;31.82;38.20;100514.63;4946547;28;101701;-88
2021/06/16 07:31:01;;;;;;;14.68;7.53;;;;;;;32.78;36.58;100502.75;4937492;28;97098;-88
2021/06/16 07:33:27;;;;;;;11.63;6.97;;;;;;;31.57;38.60;100504.03;4955444;28;96813;-89
2021/06/16 07:35:53;;;;;;;10.15;7.00;;;;;;;32.88;37.31;100508.72;4939894;28;101427;-89
2021/06/16 07:38:18;;;;;;;18.13;9.30;;;;;;;32.52;37.68;100503.28;4946750;28;98377;-88
2021/06/16 07:40:44;;;;;;;26.45;12.80;;;;;;;32.30;38.40;100506.97;4954428;28;97153;-88
2021/06/16 07:43:09;;;;;;;18.75;10.05;;;;;;;32.78;37.55;100504.63;4942377;28;97258;-88
2021/06/16 07:45:35;;;;;;;22.63;11.70;;;;;;;32.40;38.16;100508.34;4951225;28;100287;-87
2021/06/16 07:48:01;;;;;;;34.08;15.07;;;;;;;32.45;37.84;100503.22;4955938;28;99916;-88
2021/06/16 07:50:27;;;;;;;16.05;8.48;;;;;;;33.43;35.62;100509.03;4947193;28;97115;-86
2021/06/16 07:52:53;;;;;;;13.18;9.70;;;;;;;33.59;35.65;100502.47;4950950;28;97431;-90
2021/06/16 07:55:19;;;;;;;12.48;9.30;;;;;;;34.37;34.17;100508.59;4939145;28;101535;-88
2021/06/16 07:57:45;;;;;;;22.73;12.27;;;;;;;34.51;34.68;100512.22;4953540;28;98385;-89
2021/06/16 08:00:11;;;;;;;61.85;27.80;;;;;;;35.24;34.32;100503.41;4939621;28;97295;-88
2021/06/16 08:02:41;;;;;;;41.92;18.63;;;;;;;34.99;33.33;100505.88;4940292;28;97510;-88
2021/06/16 08:05:07;;;;;;;19.30;11.70;;;;;;;35.67;33.22;100508.44;4936185;28;101284;-88
2021/06/16 08:07:33;;;;;;;14.20;12.90;;;;;;;35.90;32.12;100511.56;4937988;28;101015;-88
2021/06/16 08:09:59;;;;;;;14.25;12.95;;;;;;;36.09;31.50;100507.09;4936039;28;97276;-87
2021/06/16 08:12:24;;;;;;;12.13;8.10;;;;;;;33.43;35.11;100514.47;4936425;28;97115;-83
2021/06/16 08:14:50;;;;;;;11.75;9.07;;;;;;;33.47;35.46;100517.66;4944830;28;100485;-88
2021/06/16 08:17:16;;;;;;;10.32;8.13;;;;;;;33.45;35.59;100508.81;4939348;28;101672;-87
2021/06/16 08:19:42;;;;;;;24.23;12.88;;;;;;;34.50;34.81;100515.97;4954276;28;97260;-86
2021/06/16 08:22:10;;;;;;;16.92;8.07;;;;;;;34.79;34.23;100500.38;4939470;28;97265;-88
2021/06/16 08:24:37;;;;;;;14.63;10.03;;;;;;;34.57;34.86;100505.16;4949504;28;98566;-84
2021/06/16 08:27:03;;;;;;;19.33;9.68;;;;;;;33.95;35.69;100507.75;4952184;28;101014;-85
2021/06/16 08:29:28;;;;;;;14.02;8.18;;;;;;;33.54;35.87;100511.25;4985475;28;97243;-85
2021/06/16 08:31:54;;;;;;;18.55;8.27;;;;;;;34.53;34.64;100512.00;4974153;28;96902;-91
2021/06/16 08:34:19;;;;;;;18.13;9.10;;;;;;;34.01;35.23;100511.56;4941123;28;102244;-86
2021/06/16 08:36:46;;;;;;;46.90;11.65;;;;;;;34.07;35.55;100510.78;4944591;28;101752;-88
2021/06/16 08:39:12;;;;;;;21.48;7.47;;;;;;;34.55;35.52;100510.78;4976212;28;96853;-85
2021/06/16 08:41:39;;;;;;;11.40;7.25;;;;;;;34.03;35.43;100512.19;4940701;28;97518;-83
2021/06/16 08:44:06;;;;;;;10.85;8.50;;;;;;;33.73;36.10;100512.44;4940567;28;98018;-83
2021/06/16 08:46:32;;;;;;;8.80;7.45;;;;;;;34.52;34.62;100503.00;4972231;28;97970;-80
2021/06/16 08:48:58;;;;;;;12.00;8.25;;;;;;;33.99;35.09;100503.56;4957407;28;96698;-81
2021/06/16 08:51:23;;;;;;;15.30;7.43;;;;;;;33.25;36.52;100504.09;4944188;28;97284;-83
2021/06/16 08:53:49;;;;;;;12.73;7.22;;;;;;;33.06;36.66;100508.28;4939929;28;98445;-82
2021/06/16 08:56:15;;;;;;;10.85;7.53;;;;;;;33.42;36.39;100503.78;4970228;28;98015;-84
2021/06/16 08:58:41;;;;;;;11.07;8.32;;;;;;;33.42;35.85;100512.78;4924473;28;97274;-85
2021/06/16 09:01:10;;;;;;;12.88;9.68;;;;;;;33.48;35.10;100503.00;4922054;28;97084;-85
2021/06/16 09:03:36;;;;;;;12.40;7.85;;;;;;;32.98;36.21;100502.13;4939732;28;98195;-85
2021/06/16 09:06:07;;;;;;;11.98;8.38;;;;;;;32.24;37.47;100503.16;4924576;28;100781;-83
2021/06/16 09:08:50;;;;;;;13.25;8.27;;;;;;;31.56;38.10;100495.06;4965952;28;96754;-85
2021/06/16 09:11:16;;;;;;;11.15;7.35;;;;;;;31.85;38.26;100506.94;4946918;28;97058;-85
2021/06/16 09:13:41;;;;;;;15.35;7.80;;;;;;;32.79;37.48;100501.72;4939539;28;100731;-86
2021/06/16 09:16:27;;;;;;;9.35;7.90;;;;;;;33.11;36.73;100497.69;4937419;28;101194;-85
2021/06/16 09:18:53;;;;;;;12.68;6.88;;;;;;;32.58;38.39;100501.69;4947330;28;96765;-85
2021/06/16 09:21:36;;;;;;;12.43;7.55;;;;;;;32.43;36.95;100505.25;4956641;28;97463;-83
2021/06/16 09:24:03;;;;;;;14.20;7.90;;;;;;;32.15;37.31;100504.28;4953118;28;101436;-85
2021/06/16 09:26:33;;;;;;;10.43;7.80;;;;;;;32.77;36.66;100503.78;4962657;28;97550;-86
2021/06/16 09:28:59;;;;;;;12.13;7.70;;;;;;;33.29;35.73;100499.09;4942597;28;97064;-85
2021/06/16 09:31:24;;;;;;;11.98;8.43;;;;;;;33.31;35.61;100499.75;4954787;28;97382;-85
2021/06/16 09:33:51;;;;;;;13.23;7.15;;;;;;;33.52;35.76;100497.00;4944141;28;100025;-85
2021/06/16 09:36:19;;;;;;;15.63;8.35;;;;;;;33.44;36.99;100499.00;4935205;28;101034;-92
2021/06/16 09:38:47;;;;;;;13.63;8.40;;;;;;;33.45;36.82;100501.50;4953008;28;97368;-90
2021/06/16 09:41:19;;;;;;;16.02;9.15;;;;;;;32.59;38.25;100504.22;4965801;28;97020;-91
2021/06/16 09:43:45;;;;;;;10.82;8.63;;;;;;;32.91;37.15;100504.78;4927958;28;100726;-87
2021/06/16 09:46:12;;;;;;;16.70;9.07;;;;;;;33.04;36.58;100496.75;4947460;28;100831;-85
2021/06/16 09:48:46;;;;;;;13.57;8.00;;;;;;;32.29;38.08;100500.72;4932368;28;96854;-87
2021/06/16 09:51:21;;;;;;;14.35;8.57;;;;;;;32.77;37.44;100497.53;4964635;28;98110;-86
2021/06/16 09:53:55;;;;;;;12.23;7.75;;;;;;;32.25;38.44;100496.66;4963148;28;99412;-83
2021/06/16 09:56:21;;;;;;;10.57;7.57;;;;;;;31.79;39.01;100489.56;4925106;28;100130;-80
2021/06/16 09:58:47;;;;;;;12.80;8.25;;;;;;;32.04;39.09;100492.00;4971395;28;96825;-86
2021/06/16 10:01:12;;;;;;;12.80;9.07;;;;;;;32.15;38.33;100491.53;4938912;28;97179;-82
2021/06/16 10:03:40;;;;;;;12.13;9.13;;;;;;;31.52;38.70;100488.31;4957521;28;97607;-84
2021/06/16 10:06:09;;;;;;;12.13;7.95;;;;;;;31.56;39.91;100486.94;4938744;28;101547;-86
2021/06/16 10:08:36;;;;;;;14.20;10.38;;;;;;;31.35;38.93;100490.31;4948081;28;97271;-87
2021/06/16 10:11:03;;;;;;;15.10;8.23;;;;;;;30.89;40.38;100492.19;4965964;28;97098;-86
2021/06/16 10:13:30;;;;;;;16.27;9.00;;;;;;;30.48;41.04;100480.75;4938081;28;101277;-81
2021/06/16 10:15:58;;;;;;;14.10;8.27;;;;;;;30.84;40.36;100483.78;4939137;28;101422;-88
2021/06/16 10:18:25;;;;;;;17.27;8.48;;;;;;;30.93;39.94;100482.69;4948118;28;97055;-89
2021/06/16 10:20:52;;;;;;;13.00;8.55;;;;;;;30.68;40.15;100480.13;4938653;28;96908;-82
2021/06/16 10:23:18;;;;;;;13.75;8.30;;;;;;;29.97;41.84;100478.44;4939362;28;98018;-85
2021/06/16 10:25:44;;;;;;;14.82;8.52;;;;;;;29.87;42.01;100478.63;4938065;28;101233;-85
2021/06/16 10:28:11;;;;;;;14.77;7.95;;;;;;;29.75;42.17;100483.53;4950092;28;96933;-88
2021/06/16 10:30:43;;;;;;;12.23;7.88;;;;;;;30.04;41.44;100486.69;4926609;28;96983;-78
2021/06/16 10:33:32;;;;;;;16.67;8.02;;;;;;;29.47;42.58;100479.53;4939280;28;102037;-81
2021/06/16 10:36:24;;;;;;;17.30;8.48;;;;;;;29.66;41.94;100475.63;4958165;28;98383;-80
2021/06/16 10:38:59;;;;;;;13.23;7.47;;;;;;;29.99;40.50;100479.06;4929114;28;97078;-80
2021/06/16 10:41:48;;;;;;;13.30;7.82;;;;;;;29.56;41.33;100476.66;4974924;28;97443;-80
2021/06/16 10:44:28;;;;;;;13.07;7.53;;;;;;;29.64;41.70;100483.94;4974205;28;98206;-82
2021/06/16 10:46:58;;;;;;;;;;;;;;;29.55;41.28;100477.66;4938577;28;101752;-80
2021/06/16 10:49:52;;;;;;;13.82;12.05;;;;;;;29.68;41.45;100476.31;4921218;28;97050;-79
2021/06/16 10:52:21;;;;;;;11.93;9.02;;;;;;;29.55;41.68;100469.56;4922340;28;97041;-78
2021/06/16 10:55:05;;;;;;;14.27;9.45;;;;;;;29.62;42.15;100475.16;4957406;28;98057;-80
2021/06/16 10:57:33;;;;;;;14.23;10.70;;;;;;;29.71;42.13;100479.50;4957270;28;101167;-80
2021/06/16 11:00:00;;;;;;;15.52;8.35;;;;;;;30.06;40.45;100476.53;4958595;28;97089;-80
2021/06/16 11:02:29;;;;;;;10.15;7.38;;;;;;;29.77;40.63;100468.00;4959434;28;97474;-80
2021/06/16 11:05:21;;;;;;;12.82;7.20;;;;;;;29.55;41.48;100474.09;4973822;28;101583;-81
2021/06/16 11:07:46;;;;;;;12.35;7.13;;;;;;;29.26;41.78;100475.47;4957801;28;98230;-80
2021/06/16 11:10:13;;;;;;;14.23;7.53;;;;;;;29.16;42.83;100469.41;4940618;28;96762;-80
2021/06/16 11:12:43;;;;;;;13.30;8.13;;;;;;;29.13;43.34;100474.31;4966219;28;96940;-80
2021/06/16 11:15:30;;;;;;;10.90;7.45;;;;;;;28.66;44.33;100468.50;4938036;28;98029;-80
2021/06/16 11:18:01;;;;;;;9.38;7.38;;;;;;;29.07;43.66;100465.88;4941124;28;101652;-80